Time;durP1;ratioP1;P1;durP2;ratioP2;P2;SDS_P1;SDS_P2;PMS_P1;PMS_P2;Temp;Humidity;BMP_temperature;BMP_pressure;BME280_temperature;BME280_humidity;BME280_pressure;Samples;Min_cycle;Max_cycle;Signal;HPM_P1;HPM_P2
2022/07/14 00:01:04;;;;;;;;;;;24.30;92.30;;;;;;4379296;32;43864;-78
2022/07/14 00:03:31;;;;;;;;;;;24.30;92.20;;;;;;4365682;32;44666;-78
2022/07/14 00:06:05;;;;;;;;;;;24.40;92.50;;;;;;4379797;32;43080;-79
2022/07/14 00:08:36;;;;;;;;;;;24.30;92.40;;;;;;4380618;32;20034;-78
2022/07/14 00:11:03;;;;;;;;;;;24.30;92.50;;;;;;4379249;32;43100;-79
2022/07/14 00:13:31;;;;;;;;;;;24.30;92.50;;;;;;4365783;32;44010;-79
2022/07/14 00:15:58;;;;;;;;;;;24.20;92.40;;;;;;4379185;32;43504;-79
2022/07/14 00:18:26;;;;;;;;;;;24.30;92.50;;;;;;4379855;32;43896;-78
2022/07/14 00:20:53;;;;;;;;;;;24.20;92.50;;;;;;4379257;32;43451;-79
2022/07/14 00:23:21;;;;;;;;;;;24.20;92.50;;;;;;4379765;32;43591;-78
2022/07/14 00:25:48;;;;;;;;;;;24.20;92.50;;;;;;4366115;32;43758;-78
2022/07/14 00:28:15;;;;;;;;;;;24.20;92.50;;;;;;4379132;32;44600;-79
2022/07/14 00:30:44;;;;;;;;;;;24.20;92.50;;;;;;4379540;32;43444;-79
2022/07/14 00:33:14;;;;;;;;;;;24.20;92.60;;;;;;4365612;32;43535;-79
2022/07/14 00:35:41;;;;;;;;;;;24.20;92.80;;;;;;4366152;32;44328;-79
2022/07/14 00:38:08;;;;;;;;;;;24.20;92.60;;;;;;4365672;32;43743;-79
2022/07/14 00:40:35;;;;;;;;;;;24.20;92.60;;;;;;4379303;32;43889;-78
2022/07/14 00:43:03;;;;;;;;;;;24.10;92.60;;;;;;4366179;32;43856;-79
2022/07/14 00:45:30;;;;;;;;;;;24.10;92.60;;;;;;4379136;32;43441;-79
2022/07/14 00:47:57;;;;;;;;;;;24.10;92.60;;;;;;4379008;32;42948;-79
2022/07/14 00:50:24;;;;;;;;;;;24.10;92.70;;;;;;4362879;32;44069;-79
2022/07/14 00:52:51;;;;;;;;;;;24.10;92.70;;;;;;4363539;32;45803;-79
2022/07/14 00:55:18;;;;;;;;;;;24.10;92.60;;;;;;4363235;32;43212;-79
2022/07/14 00:57:47;;;;;;;;;;;24.10;92.80;;;;;;4363837;32;43842;-79
2022/07/14 01:00:15;;;;;;;;;;;24.10;92.80;;;;;;4376763;32;43882;-79
2022/07/14 01:02:46;;;;;;;;;;;24.00;92.60;;;;;;4376429;32;43303;-79
2022/07/14 01:05:13;;;;;;;;;;;24.00;92.60;;;;;;4377077;32;44115;-79
2022/07/14 01:07:41;;;;;;;;;;;24.00;92.60;;;;;;4363041;32;43402;-79
2022/07/14 01:10:09;;;;;;;;;;;24.00;92.50;;;;;;4376453;32;44021;-79
2022/07/14 01:12:37;;;;;;;;;;;24.00;92.50;;;;;;4376648;32;44296;-79
2022/07/14 01:15:05;;;;;;;;;;;24.00;92.50;;;;;;4376914;32;43883;-79
2022/07/14 01:17:32;;;;;;;;;;;24.00;92.50;;;;;;4363438;32;43135;-79
2022/07/14 01:19:59;;;;;;;;;;;23.90;92.60;;;;;;4376702;32;43194;-79
2022/07/14 01:22:26;;;;;;;;;;;23.90;92.50;;;;;;4376462;32;43930;-79
2022/07/14 01:24:53;;;;;;;;;;;23.90;92.60;;;;;;4362904;32;44893;-79
2022/07/14 01:27:20;;;;;;;;;;;23.90;92.40;;;;;;4362946;32;43783;-79
2022/07/14 01:29:47;;;;;;;;;;;23.90;92.40;;;;;;4376540;32;44119;-79
2022/07/14 01:32:15;;;;;;;;;;;23.80;92.40;;;;;;4376099;32;42271;-79
2022/07/14 01:34:43;;;;;;;;;;;23.80;92.40;;;;;;4376542;32;44282;-79
2022/07/14 01:37:10;;;;;;;;;;;23.90;92.50;;;;;;4376022;32;42915;-79
2022/07/14 01:39:37;;;;;;;;;;;23.80;92.50;;;;;;4376509;32;43285;-79
2022/07/14 01:42:05;;;;;;;;;;;23.80;92.50;;;;;;4362484;32;44886;-79
2022/07/14 01:44:32;;;;;;;;;;;23.80;92.40;;;;;;4376249;32;42319;-79
2022/07/14 01:47:02;;;;;;;;;;;23.80;92.40;;;;;;4362805;32;43283;-79
2022/07/14 01:49:29;;;;;;;;;;;23.70;92.30;;;;;;4362820;32;43014;-79
2022/07/14 01:51:56;;;;;;;;;;;23.70;92.50;;;;;;4375681;32;44657;-79
2022/07/14 01:54:24;;;;;;;;;;;23.70;92.60;;;;;;4376369;32;43187;-78
2022/07/14 01:56:54;;;;;;;;;;;23.70;92.40;;;;;;4375741;32;43486;-78
2022/07/14 01:59:21;;;;;;;;;;;23.70;92.50;;;;;;4376081;32;42284;-78
2022/07/14 02:01:48;;;;;;;;;;;23.60;92.50;;;;;;4375414;32;45525;-78
2022/07/14 02:04:17;;;;;;;;;;;23.70;92.60;;;;;;4362279;32;42779;-78
2022/07/14 02:06:45;;;;;;;;;;;23.60;92.60;;;;;;4362813;32;43647;-78
2022/07/14 02:09:12;;;;;;;;;;;23.60;92.60;;;;;;4376196;32;44262;-78
2022/07/14 02:14:25;;;;;;;;;;;23.60;92.60;;;;;;4375529;32;42851;-78
2022/07/14 02:16:54;;;;;;;;;;;23.60;92.70;;;;;;4362410;32;43235;-78
2022/07/14 02:19:24;;;;;;;;;;;23.60;92.70;;;;;;4362244;32;43414;-78
2022/07/14 02:21:52;;;;;;;;;;;23.60;92.70;;;;;;4362425;32;43310;-78
2022/07/14 02:24:20;;;;;;;;;;;23.60;92.80;;;;;;4362441;32;43463;-78
2022/07/14 02:26:50;;;;;;;;;;;23.50;92.70;;;;;;4362302;32;43847;-78
2022/07/14 02:29:17;;;;;;;;;;;23.50;92.80;;;;;;4362338;32;43161;-78
2022/07/14 02:31:47;;;;;;;;;;;23.50;92.80;;;;;;4375340;32;44201;-78
2022/07/14 02:34:15;;;;;;;;;;;23.50;92.80;;;;;;4375567;32;44417;-78
2022/07/14 02:36:42;;;;;;;;;;;23.50;92.80;;;;;;4361748;32;44466;-79
2022/07/14 02:39:12;;;;;;;;;;;23.50;92.80;;;;;;4362087;32;42503;-78
2022/07/14 02:41:42;;;;;;;;;;;23.40;92.80;;;;;;4375605;32;43213;-79
2022/07/14 02:44:10;;;;;;;;;;;23.40;92.80;;;;;;4361762;32;43478;-78
2022/07/14 02:46:37;;;;;;;;;;;23.40;92.70;;;;;;4375027;32;44188;-79
2022/07/14 02:49:05;;;;;;;;;;;23.40;92.90;;;;;;4375254;32;44317;-78
2022/07/14 02:51:32;;;;;;;;;;;23.40;92.80;;;;;;4375406;32;43772;-78
2022/07/14 02:53:59;;;;;;;;;;;23.40;92.90;;;;;;4375384;32;42233;-78
2022/07/14 02:56:26;;;;;;;;;;;23.40;92.90;;;;;;4361904;32;43320;-78
2022/07/14 02:58:54;;;;;;;;;;;23.30;92.90;;;;;;4361501;32;43090;-78
2022/07/14 03:01:21;;;;;;;;;;;23.30;92.90;;;;;;4361653;32;43352;-78
2022/07/14 03:03:49;;;;;;;;;;;23.30;92.90;;;;;;4361418;32;42646;-78
2022/07/14 03:06:17;;;;;;;;;;;23.30;92.90;;;;;;4374932;32;43319;-77
2022/07/14 03:08:44;;;;;;;;;;;23.30;92.90;;;;;;4374806;32;42671;-78
2022/07/14 03:11:11;;;;;;;;;;;23.30;92.90;;;;;;4375529;32;20405;-78
2022/07/14 03:13:39;;;;;;;;;;;23.30;92.90;;;;;;4360969;32;44294;-78
2022/07/14 03:16:09;;;;;;;;;;;23.30;92.90;;;;;;4361405;32;43016;-78
2022/07/14 03:18:36;;;;;;;;;;;23.30;92.90;;;;;;4361279;32;43169;-78
2022/07/14 03:21:05;;;;;;;;;;;23.20;92.90;;;;;;4361380;32;44154;-78
2022/07/14 03:23:33;;;;;;;;;;;23.20;92.90;;;;;;4361670;32;43239;-77
2022/07/14 03:26:01;;;;;;;;;;;23.20;93.00;;;;;;4374744;32;43230;-77
2022/07/14 03:28:28;;;;;;;;;;;23.20;93.00;;;;;;4361654;32;44195;-78
2022/07/14 03:30:56;;;;;;;;;;;23.20;92.90;;;;;;4374575;32;43911;-77
2022/07/14 03:33:24;;;;;;;;;;;23.20;93.00;;;;;;4374840;32;43987;-77
2022/07/14 03:35:51;;;;;;;;;;;23.20;93.00;;;;;;4374825;32;44567;-78
2022/07/14 03:38:18;;;;;;;;;;;23.20;93.00;;;;;;4374931;32;43013;-78
2022/07/14 03:41:04;;;;;;;;;;;23.20;93.00;;;;;;4374548;32;42530;-78
2022/07/14 03:43:33;;;;;;;;;;;23.20;93.00;;;;;;4374785;32;43038;-78
2022/07/14 03:46:00;;;;;;;;;;;23.20;93.00;;;;;;4361481;32;45130;-77
2022/07/14 03:48:27;;;;;;;;;;;23.20;93.00;;;;;;4374963;32;43088;-78
2022/07/14 03:50:54;;;;;;;;;;;23.10;93.00;;;;;;4374427;32;44030;-77
2022/07/14 03:53:21;;;;;;;;;;;23.10;93.00;;;;;;4375130;32;44172;-77
2022/07/14 03:55:48;;;;;;;;;;;23.10;93.00;;;;;;4361321;32;43269;-78
2022/07/14 03:58:19;;;;;;;;;;;23.10;92.90;;;;;;4374602;32;43470;-77
2022/07/14 04:00:46;;;;;;;;;;;23.00;93.10;;;;;;4374766;32;44365;-78
2022/07/14 04:03:14;;;;;;;;;;;23.00;93.10;;;;;;4374124;32;44027;-77
2022/07/14 04:05:41;;;;;;;;;;;23.00;93.10;;;;;;4360918;32;42728;-77
2022/07/14 04:08:09;;;;;;;;;;;23.00;93.10;;;;;;4361095;32;42976;-77
2022/07/14 04:10:36;;;;;;;;;;;23.00;93.20;;;;;;4361057;32;43837;-78
2022/07/14 04:13:03;;;;;;;;;;;23.00;93.20;;;;;;4360902;32;42316;-77
2022/07/14 04:15:30;;;;;;;;;;;22.90;93.20;;;;;;4374715;32;43721;-78
2022/07/14 04:17:58;;;;;;;;;;;22.90;93.20;;;;;;4360813;32;44246;-78
2022/07/14 04:20:25;;;;;;;;;;;22.90;93.20;;;;;;4375172;32;43150;-78
2022/07/14 04:22:52;;;;;;;;;;;22.90;93.20;;;;;;4374218;32;43056;-77
2022/07/14 04:25:21;;;;;;;;;;;22.90;93.30;;;;;;4363887;32;43015;-77
2022/07/14 04:27:48;;;;;;;;;;;22.90;93.30;;;;;;4363801;32;43709;-77
2022/07/14 04:30:18;;;;;;;;;;;22.90;93.30;;;;;;4377457;32;43878;-78
2022/07/14 04:32:45;;;;;;;;;;;22.90;93.30;;;;;;4376857;32;44070;-78
2022/07/14 04:35:12;;;;;;;;;;;22.80;93.30;;;;;;4363459;32;43790;-77
2022/07/14 04:37:39;;;;;;;;;;;22.80;93.30;;;;;;4377060;32;43031;-77
2022/07/14 04:40:08;;;;;;;;;;;22.80;93.30;;;;;;4364860;32;20070;-77
2022/07/14 04:42:35;;;;;;;;;;;22.80;93.30;;;;;;4377358;32;43183;-77
2022/07/14 04:45:03;;;;;;;;;;;22.80;93.30;;;;;;4377293;32;43839;-77
2022/07/14 04:47:32;;;;;;;;;;;22.80;93.40;;;;;;4363461;32;43581;-77
2022/07/14 04:52:48;;;;;;;;;;;22.80;93.40;;;;;;4377222;32;44198;-77
2022/07/14 04:55:16;;;;;;;;;;;22.80;93.40;;;;;;4376676;32;44026;-77
2022/07/14 04:57:46;;;;;;;;;;;22.80;93.40;;;;;;4377042;32;25988;-77
2022/07/14 05:00:14;;;;;;;;;;;22.80;93.40;;;;;;4376676;32;43195;-78
2022/07/14 05:02:41;;;;;;;;;;;22.80;93.40;;;;;;4376554;32;45721;-77
2022/07/14 05:05:08;;;;;;;;;;;22.70;93.40;;;;;;4377103;32;43191;-77
2022/07/14 05:07:36;;;;;;;;;;;22.80;93.50;;;;;;4363102;32;43650;-79
2022/07/14 05:10:04;;;;;;;;;;;22.70;93.40;;;;;;4376971;32;44179;-77
2022/07/14 05:12:31;;;;;;;;;;;22.70;93.50;;;;;;4363772;32;19996;-78
2022/07/14 05:15:01;;;;;;;;;;;22.70;93.60;;;;;;4376369;32;42628;-78
2022/07/14 05:17:28;;;;;;;;;;;22.70;93.60;;;;;;4363257;32;43263;-78
2022/07/14 05:19:56;;;;;;;;;;;22.70;93.50;;;;;;4376489;32;45591;-77
2022/07/14 05:22:24;;;;;;;;;;;22.70;93.60;;;;;;4376523;32;44592;-77
2022/07/14 05:24:51;;;;;;;;;;;22.70;93.60;;;;;;4362773;32;43909;-78
2022/07/14 05:27:19;;;;;;;;;;;22.70;93.60;;;;;;4363125;32;44755;-78
2022/07/14 05:29:46;;;;;;;;;;;22.70;93.70;;;;;;4363211;32;43230;-78
2022/07/14 05:32:13;;;;;;;;;;;22.70;93.70;;;;;;4363381;32;43200;-77
2022/07/14 05:34:42;;;;;;;;;;;22.70;93.70;;;;;;4375796;32;42803;-78
2022/07/14 05:37:15;;;;;;;;;;;22.70;93.70;;;;;;4363522;32;42971;-78
2022/07/14 05:39:44;;;;;;;;;;;22.60;93.70;;;;;;4376474;32;44683;-78
2022/07/14 05:42:12;;;;;;;;;;;22.60;93.70;;;;;;4362787;32;43319;-77
2022/07/14 05:44:39;;;;;;;;;;;22.60;93.80;;;;;;4376162;32;44659;-79
2022/07/14 05:47:06;;;;;;;;;;;22.60;93.80;;;;;;4376206;32;42556;-78
2022/07/14 05:49:34;;;;;;;;;;;22.60;93.80;;;;;;4376261;32;43870;-79
2022/07/14 05:52:02;;;;;;;;;;;22.60;93.80;;;;;;4362725;32;42898;-79
2022/07/14 05:54:29;;;;;;;;;;;22.60;93.80;;;;;;4362206;32;45214;-78
2022/07/14 05:56:56;;;;;;;;;;;22.60;93.90;;;;;;4375996;32;43051;-78
2022/07/14 05:59:23;;;;;;;;;;;22.60;94.00;;;;;;4362460;32;42117;-78
2022/07/14 06:02:11;;;;;;;;;;;22.60;93.90;;;;;;4375786;32;46560;-77
2022/07/14 06:04:38;;;;;;;;;;;22.60;94.00;;;;;;4376048;32;42704;-77
2022/07/14 06:07:06;;;;;;;;;;;22.60;94.00;;;;;;4375789;32;43281;-77
2022/07/14 06:09:55;;;;;;;;;;;22.60;94.10;;;;;;4375913;32;43490;-78
2022/07/14 06:12:30;;;;;;;;;;;22.60;94.10;;;;;;4362693;32;43020;-79
2022/07/14 06:14:59;;;;;;;;;;;22.60;94.00;;;;;;4375855;32;43862;-79
2022/07/14 06:17:27;;;;;;;;;;;22.50;94.00;;;;;;4375549;32;43224;-78
2022/07/14 06:20:05;;;;;;;;;;;22.40;94.10;;;;;;4376025;32;43598;-78
2022/07/14 06:22:33;;;;;;;;;;;22.40;94.30;;;;;;4362256;32;42550;-79
2022/07/14 06:25:00;;;;;;;;;;;22.40;94.40;;;;;;4375974;32;44187;-79
2022/07/14 06:27:28;;;;;;;;;;;22.30;94.50;;;;;;4362414;32;43893;-78
2022/07/14 06:29:55;;;;;;;;;;;22.20;94.50;;;;;;4361926;32;43629;-78
2022/07/14 06:32:25;;;;;;;;;;;22.10;94.60;;;;;;4375328;32;43199;-78
2022/07/14 06:34:52;;;;;;;;;;;22.10;94.80;;;;;;4375284;32;41295;-78
2022/07/14 06:37:19;;;;;;;;;;;22.10;94.80;;;;;;4362056;32;42865;-77
2022/07/14 06:39:46;;;;;;;;;;;22.10;94.90;;;;;;4362266;32;43333;-77
2022/07/14 06:42:14;;;;;;;;;;;22.10;94.80;;;;;;4362752;32;43267;-77
2022/07/14 06:44:41;;;;;;;;;;;22.00;94.90;;;;;;4362047;32;42963;-78
2022/07/14 06:47:08;;;;;;;;;;;22.00;94.90;;;;;;4374400;32;43486;-78
2022/07/14 06:49:36;;;;;;;;;;;22.00;94.90;;;;;;4362250;32;43242;-77
2022/07/14 06:52:15;;;;;;;;;;;21.90;95.00;;;;;;4375286;32;43485;-78
2022/07/14 06:55:06;;;;;;;;;;;21.90;95.10;;;;;;4362560;32;45422;-77
2022/07/14 06:57:44;;;;;;;;;;;21.90;95.20;;;;;;4363286;32;45020;-77
2022/07/14 07:00:26;;;;;;;;;;;21.90;95.20;;;;;;4375169;32;45225;-77
2022/07/14 07:02:53;;;;;;;;;;;21.90;95.20;;;;;;4358874;32;44019;-77
2022/07/14 07:08:08;;;;;;;;;;;21.90;95.30;;;;;;4360399;32;44304;-77
2022/07/14 07:10:40;;;;;;;;;;;21.90;95.30;;;;;;4359851;32;42947;-77
2022/07/14 07:13:08;;;;;;;;;;;21.90;95.40;;;;;;4360342;32;43914;-77
2022/07/14 07:15:36;;;;;;;;;;;21.90;95.50;;;;;;4359806;32;43619;-76
2022/07/14 07:18:06;;;;;;;;;;;21.90;95.70;;;;;;4359748;32;44095;-77
2022/07/14 07:20:34;;;;;;;;;;;21.90;95.60;;;;;;4359379;32;43538;-77
2022/07/14 07:23:01;;;;;;;;;;;21.90;95.70;;;;;;4359285;32;43248;-77
2022/07/14 07:25:34;;;;;;;;;;;21.90;95.70;;;;;;4359063;32;42285;-76
2022/07/14 07:28:05;;;;;;;;;;;21.90;95.50;;;;;;4360037;32;42823;-77
2022/07/14 07:30:35;;;;;;;;;;;21.90;95.50;;;;;;4358628;32;42669;-78
2022/07/14 07:33:08;;;;;;;;;;;21.90;95.40;;;;;;4359178;32;44135;-79
2022/07/14 07:35:35;;;;;;;;;;;21.90;95.40;;;;;;4358931;32;44666;-78
2022/07/14 07:38:06;;;;;;;;;;;21.80;95.50;;;;;;4360138;33;44191;-78
2022/07/14 07:40:34;;;;;;;;;;;21.80;95.50;;;;;;4358934;33;43912;-77
2022/07/14 07:43:01;;;;;;;;;;;21.80;95.50;;;;;;4359005;33;43341;-77
2022/07/14 07:45:30;;;;;;;;;;;21.80;95.30;;;;;;4359807;33;42767;-77
2022/07/14 07:48:00;;;;;;;;;;;21.90;95.50;;;;;;4358806;33;43836;-77
2022/07/14 07:50:27;;;;;;;;;;;21.90;95.50;;;;;;4359842;33;42690;-76
2022/07/14 07:52:54;;;;;;;;;;;21.90;95.50;;;;;;4359951;33;44204;-77
2022/07/14 07:55:21;;;;;;;;;;;21.90;95.30;;;;;;4359858;33;43859;-78
2022/07/14 07:57:56;;;;;;;;;;;21.90;95.00;;;;;;4358494;32;42791;-77
2022/07/14 08:00:26;;;;;;;;;;;21.90;95.40;;;;;;4362764;32;44282;-76
2022/07/14 08:02:54;;;;;;;;;;;21.90;94.80;;;;;;4371757;32;43893;-76
2022/07/14 08:05:25;;;;;;;;;;;21.90;94.80;;;;;;4364045;32;44015;-75
2022/07/14 08:08:12;;;;;;;;;;;21.90;95.00;;;;;;4366565;32;42984;-75
2022/07/14 08:10:43;;;;;;;;;;;21.90;95.00;;;;;;4377369;32;43761;-76
2022/07/14 08:13:10;;;;;;;;;;;22.00;94.50;;;;;;4378703;32;19993;-76
2022/07/14 08:15:38;;;;;;;;;;;21.90;93.40;;;;;;4363860;32;43688;-75
2022/07/14 08:18:05;;;;;;;;;;;22.00;94.20;;;;;;4377234;32;43705;-75
2022/07/14 08:20:33;;;;;;;;;;;22.00;93.80;;;;;;4377210;32;42543;-75
2022/07/14 08:23:01;;;;;;;;;;;22.00;93.50;;;;;;4377113;32;44329;-76
2022/07/14 08:25:28;;;;;;;;;;;22.00;92.20;;;;;;4377693;32;43799;-75
2022/07/14 08:27:55;;;;;;;;;;;22.00;93.10;;;;;;4363707;32;43859;-76
2022/07/14 08:30:22;;;;;;;;;;;22.00;92.90;;;;;;4377353;32;42806;-74
2022/07/14 08:32:51;;;;;;;;;;;22.10;92.90;;;;;;4377400;32;44242;-75
2022/07/14 08:35:23;;;;;;;;;;;22.00;92.20;;;;;;4377075;32;44354;-75
2022/07/14 08:37:51;;;;;;;;;;;22.00;92.20;;;;;;4377542;32;45798;-75
2022/07/14 08:40:20;;;;;;;;;;;22.00;92.20;;;;;;4364183;32;44261;-75
2022/07/14 08:42:48;;;;;;;;;;;22.10;91.20;;;;;;4377203;32;43326;-75
2022/07/14 08:45:19;;;;;;;;;;;22.10;91.90;;;;;;4377966;32;20005;-76
2022/07/14 08:47:46;;;;;;;;;;;22.10;91.80;;;;;;4376943;32;44191;-76
2022/07/14 08:50:18;;;;;;;;;;;22.10;91.90;;;;;;4376880;32;42159;-76
2022/07/14 08:52:46;;;;;;;;;;;22.10;91.50;;;;;;4376788;32;41948;-75
2022/07/14 08:55:14;;;;;;;;;;;22.20;91.20;;;;;;4376965;32;42757;-76
2022/07/14 08:57:42;;;;;;;;;;;22.10;90.50;;;;;;4376639;32;42886;-78
2022/07/14 09:00:11;;;;;;;;;;;22.10;90.70;;;;;;4377026;32;43237;-75
2022/07/14 09:02:42;;;;;;;;;;;22.10;91.70;;;;;;4376827;32;43224;-75
2022/07/14 09:05:30;;;;;;;;;;;22.10;91.40;;;;;;4365658;32;46008;-76
2022/07/14 09:07:57;;;;;;;;;;;22.20;91.20;;;;;;4377869;32;20014;-76
2022/07/14 09:10:26;;;;;;;;;;;22.20;91.00;;;;;;4376015;32;43619;-76
2022/07/14 09:13:12;;;;;;;;;;;22.10;90.70;;;;;;4376482;32;43482;-75
2022/07/14 09:15:45;;;;;;;;;;;22.10;90.40;;;;;;4364436;32;20400;-75
2022/07/14 09:18:20;;;;;;;;;;;22.10;90.50;;;;;;4363342;32;43734;-76
2022/07/14 09:20:51;;;;;;;;;;;22.10;91.10;;;;;;4376800;32;45582;-76
2022/07/14 09:23:35;;;;;;;;;;;22.10;91.60;;;;;;4376802;32;45052;-76
2022/07/14 09:26:10;;;;;;;;;;;22.20;91.20;;;;;;4377029;32;43933;-76
2022/07/14 09:28:43;;;;;;;;;;;22.20;91.20;;;;;;4376770;32;43059;-76
2022/07/14 09:31:24;;;;;;;;;;;22.20;91.50;;;;;;4376844;32;43482;-76
2022/07/14 09:33:52;;;;;;;;;;;22.20;91.70;;;;;;4362539;32;44767;-76
2022/07/14 09:36:21;;;;;;;;;;;22.30;91.50;;;;;;4376385;32;44008;-76
2022/07/14 09:38:50;;;;;;;;;;;22.40;91.40;;;;;;4376137;32;45146;-76
2022/07/14 09:41:18;;;;;;;;;;;22.40;91.30;;;;;;4376082;32;43241;-76
2022/07/14 09:44:04;;;;;;;;;;;22.40;91.00;;;;;;4376394;32;42665;-77
2022/07/14 09:46:44;;;;;;;;;;;22.40;90.90;;;;;;4363213;32;20012;-76
2022/07/14 09:49:12;;;;;;;;;;;22.40;90.10;;;;;;4362554;32;42826;-76
2022/07/14 09:52:06;;;;;;;;;;;22.40;90.40;;;;;;4362448;32;41964;-76
2022/07/14 09:54:44;;;;;;;;;;;22.40;90.20;;;;;;4360866;32;43360;-76
2022/07/14 09:57:11;;;;;;;;;;;22.40;88.70;;;;;;4362346;32;44293;-76
2022/07/14 09:59:46;;;;;;;;;;;22.40;89.00;;;;;;4362646;32;43481;-76
2022/07/14 10:02:21;;;;;;;;;;;22.40;90.00;;;;;;4375966;32;43032;-76
2022/07/14 10:04:51;;;;;;;;;;;22.40;89.90;;;;;;4375687;32;42544;-77
2022/07/14 10:07:18;;;;;;;;;;;22.50;90.10;;;;;;4362223;32;43649;-76
2022/07/14 10:10:01;;;;;;;;;;;22.50;89.50;;;;;;4362353;32;42063;-76
2022/07/14 10:12:29;;;;;;;;;;;22.50;89.40;;;;;;4363901;32;19993;-76
2022/07/14 10:15:00;;;;;;;;;;;22.50;88.50;;;;;;4375993;32;45506;-76
2022/07/14 10:17:28;;;;;;;;;;;22.50;88.10;;;;;;4376095;32;43478;-76
2022/07/14 10:19:56;;;;;;;;;;;22.50;86.80;;;;;;4375930;32;43478;-76
2022/07/14 10:22:23;;;;;;;;;;;22.50;87.10;;;;;;4362431;32;43732;-76
2022/07/14 10:24:50;;;;;;;;;;;22.60;86.20;;;;;;4375605;32;44166;-76
2022/07/14 10:27:20;;;;;;;;;;;22.50;85.40;;;;;;4375344;32;43680;-76
2022/07/14 10:29:53;;;;;;;;;;;22.50;84.40;;;;;;4362289;32;44222;-76
2022/07/14 10:32:41;;;;;;;;;;;22.50;85.60;;;;;;4375791;32;44728;-76
2022/07/14 10:35:08;;;;;;;;;;;22.50;86.90;;;;;;4375685;32;44837;-76
2022/07/14 10:37:42;;;;;;;;;;;22.50;85.80;;;;;;4376356;32;20000;-76
2022/07/14 10:40:15;;;;;;;;;;;22.60;86.00;;;;;;4361817;32;43312;-76
2022/07/14 10:42:51;;;;;;;;;;;22.60;85.60;;;;;;4375233;32;42714;-76
2022/07/14 10:45:18;;;;;;;;;;;22.60;84.80;;;;;;4362410;32;42864;-76
2022/07/14 10:47:49;;;;;;;;;;;22.60;86.60;;;;;;4376002;32;21254;-76
2022/07/14 10:50:21;;;;;;;;;;;22.60;85.80;;;;;;4362068;32;44196;-75
2022/07/14 10:52:54;;;;;;;;;;;22.60;86.50;;;;;;4362172;32;44083;-76
2022/07/14 10:55:32;;;;;;;;;;;22.70;86.30;;;;;;4375082;32;42443;-76
2022/07/14 10:57:59;;;;;;;;;;;22.70;86.10;;;;;;4362078;32;43908;-76
2022/07/14 11:00:44;;;;;;;;;;;22.70;84.90;;;;;;4375212;32;43982;-76
2022/07/14 11:03:32;;;;;;;;;;;22.70;86.10;;;;;;4358766;32;44093;-76
2022/07/14 11:05:59;;;;;;;;;;;22.70;86.20;;;;;;4351666;32;43056;-76
2022/07/14 11:09:05;;;;;;;;;;;22.70;85.50;;;;;;4360304;32;45656;-76
2022/07/14 11:11:32;;;;;;;;;;;22.70;85.80;;;;;;4360331;32;42498;-75
2022/07/14 11:13:59;;;;;;;;;;;22.70;86.80;;;;;;4359280;32;43709;-76
2022/07/14 11:16:50;;;;;;;;;;;22.70;86.10;;;;;;4359235;32;43724;-76
2022/07/14 11:19:24;;;;;;;;;;;22.80;86.70;;;;;;4360971;32;20001;-77
2022/07/14 11:22:20;;;;;;;;;;;22.80;85.90;;;;;;4360342;32;43031;-76
2022/07/14 11:24:57;;;;;;;;;;;22.80;86.40;;;;;;4349710;32;44219;-76
2022/07/14 11:27:30;;;;;;;;;;;22.80;85.70;;;;;;4360321;32;44057;-76
2022/07/14 11:29:57;;;;;;;;;;;22.90;86.50;;;;;;4359021;32;43720;-76
2022/07/14 11:32:29;;;;;;;;;;;22.90;86.80;;;;;;4359657;32;42136;-76
2022/07/14 11:37:55;;;;;;;;;;;22.90;85.80;;;;;;4359887;32;42163;-75
2022/07/14 11:40:52;;;;;;;;;;;22.90;85.00;;;;;;4359121;33;43696;-76
2022/07/14 11:43:31;;;;;;;;;;;22.90;84.40;;;;;;4353338;32;42972;-75
2022/07/14 11:46:00;;;;;;;;;;;22.90;84.80;;;;;;4360150;33;43190;-76
2022/07/14 11:48:28;;;;;;;;;;;23.00;86.20;;;;;;4360107;33;43708;-75
2022/07/14 11:51:09;;;;;;;;;;;23.00;85.40;;;;;;4359875;32;44803;-75
2022/07/14 11:53:37;;;;;;;;;;;23.00;85.50;;;;;;4359985;33;42669;-76
2022/07/14 11:56:06;;;;;;;;;;;23.00;84.10;;;;;;4360012;32;44374;-76
2022/07/14 11:58:35;;;;;;;;;;;23.10;84.60;;;;;;4359611;33;43811;-76
2022/07/14 12:01:03;;;;;;;;;;;23.10;83.20;;;;;;4360054;33;43856;-76
2022/07/14 12:03:32;;;;;;;;;;;23.10;83.70;;;;;;4372732;32;43834;-75
2022/07/14 12:05:59;;;;;;;;;;;23.10;83.60;;;;;;4361396;32;43242;-76
2022/07/14 12:08:28;;;;;;;;;;;23.10;82.60;;;;;;4374267;32;43522;-77
2022/07/14 12:11:03;;;;;;;;;;;23.10;82.10;;;;;;4374784;32;43205;-75
2022/07/14 12:13:30;;;;;;;;;;;23.10;82.30;;;;;;4361469;32;44266;-75
2022/07/14 12:16:02;;;;;;;;;;;23.10;83.50;;;;;;4361117;32;45796;-76
2022/07/14 12:18:31;;;;;;;;;;;23.20;83.50;;;;;;4374279;32;43486;-76
2022/07/14 12:20:59;;;;;;;;;;;23.20;83.10;;;;;;4374432;32;43638;-76
2022/07/14 12:23:27;;;;;;;;;;;23.20;83.00;;;;;;4374382;32;43831;-75
2022/07/14 12:25:59;;;;;;;;;;;23.20;81.50;;;;;;4374301;32;43505;-77
2022/07/14 12:28:26;;;;;;;;;;;23.30;81.80;;;;;;4374718;32;43841;-77
2022/07/14 12:30:55;;;;;;;;;;;23.30;82.30;;;;;;4374672;32;43877;-75
2022/07/14 12:33:33;;;;;;;;;;;23.30;81.90;;;;;;4360746;32;43490;-76
2022/07/14 12:36:03;;;;;;;;;;;23.30;82.60;;;;;;4374301;32;42573;-75
2022/07/14 12:38:32;;;;;;;;;;;23.30;82.90;;;;;;4361283;32;43564;-75
2022/07/14 12:41:00;;;;;;;;;;;23.30;83.60;;;;;;4374446;32;42456;-76
2022/07/14 12:43:32;;;;;;;;;;;23.40;81.80;;;;;;4374611;32;44187;-76
2022/07/14 12:46:02;;;;;;;;;;;23.30;81.80;;;;;;4362889;32;43278;-76
2022/07/14 12:48:31;;;;;;;;;;;23.30;80.80;;;;;;4376885;32;43573;-76
2022/07/14 12:51:16;;;;;;;;;;;23.30;81.70;;;;;;4363492;32;44320;-75
2022/07/14 12:53:57;;;;;;;;;;;23.30;81.70;;;;;;4363555;32;43494;-76
2022/07/14 12:56:25;;;;;;;;;;;23.40;82.60;;;;;;4363287;32;42861;-76
2022/07/14 12:58:53;;;;;;;;;;;23.30;81.00;;;;;;4363389;32;43743;-76
2022/07/14 13:01:20;;;;;;;;;;;23.30;81.20;;;;;;4363622;32;43513;-77
2022/07/14 13:04:01;;;;;;;;;;;23.30;80.90;;;;;;4363139;32;43489;-76
2022/07/14 13:06:41;;;;;;;;;;;23.30;81.10;;;;;;4363193;32;42486;-77
2022/07/14 13:09:17;;;;;;;;;;;23.30;80.60;;;;;;4377113;32;43863;-76
2022/07/14 13:11:45;;;;;;;;;;;23.40;82.30;;;;;;4376900;32;44059;-76
2022/07/14 13:14:12;;;;;;;;;;;23.40;82.70;;;;;;4363477;32;43934;-78
2022/07/14 13:16:44;;;;;;;;;;;23.40;81.70;;;;;;4376730;32;45044;-76
2022/07/14 13:19:14;;;;;;;;;;;23.40;81.30;;;;;;4376760;32;43701;-77
2022/07/14 13:21:50;;;;;;;;;;;23.40;82.00;;;;;;4376180;32;41850;-74
2022/07/14 13:24:22;;;;;;;;;;;23.50;81.10;;;;;;4376356;32;43544;-75
2022/07/14 13:27:03;;;;;;;;;;;23.50;81.20;;;;;;4376288;32;43062;-74
2022/07/14 13:29:31;;;;;;;;;;;23.50;81.20;;;;;;4376668;32;42526;-73
2022/07/14 13:31:59;;;;;;;;;;;23.50;81.30;;;;;;4363134;32;43022;-73
2022/07/14 13:34:28;;;;;;;;;;;23.60;81.20;;;;;;4376274;32;42860;-73
2022/07/14 13:36:56;;;;;;;;;;;23.60;81.70;;;;;;4376167;32;43321;-74
2022/07/14 13:39:24;;;;;;;;;;;23.60;81.10;;;;;;4376359;32;42890;-73
2022/07/14 13:41:54;;;;;;;;;;;23.60;81.50;;;;;;4376564;32;43742;-73
2022/07/14 13:44:21;;;;;;;;;;;23.60;82.70;;;;;;4376389;32;45755;-73
2022/07/14 13:46:49;;;;;;;;;;;23.60;82.90;;;;;;4376203;32;42812;-73
2022/07/14 13:49:16;;;;;;;;;;;23.70;83.30;;;;;;4376478;32;43729;-74
2022/07/14 13:54:30;;;;;;;;;;;23.70;82.70;;;;;;4376343;32;43340;-75
2022/07/14 13:56:58;;;;;;;;;;;23.70;83.30;;;;;;4361821;32;45711;-75
2022/07/14 13:59:25;;;;;;;;;;;23.70;83.20;;;;;;4362317;32;43842;-74
2022/07/14 14:01:52;;;;;;;;;;;23.70;83.50;;;;;;4375684;32;43068;-74
2022/07/14 14:04:20;;;;;;;;;;;23.70;84.40;;;;;;4375733;32;44054;-75
2022/07/14 14:06:50;;;;;;;;;;;23.70;84.10;;;;;;4376036;32;42848;-74
2022/07/14 14:09:18;;;;;;;;;;;23.70;83.90;;;;;;4375997;32;44200;-74
2022/07/14 14:11:45;;;;;;;;;;;23.70;84.00;;;;;;4375738;32;43691;-74
2022/07/14 14:14:13;;;;;;;;;;;23.70;83.60;;;;;;4375615;32;42468;-75
2022/07/14 14:16:40;;;;;;;;;;;23.70;84.90;;;;;;4375960;32;43562;-74
2022/07/14 14:19:18;;;;;;;;;;;23.80;84.70;;;;;;4376047;32;44289;-74
2022/07/14 14:21:49;;;;;;;;;;;23.70;84.20;;;;;;4376672;32;20090;-75
2022/07/14 14:24:17;;;;;;;;;;;23.80;82.40;;;;;;4375911;32;43288;-74
2022/07/14 14:26:46;;;;;;;;;;;23.80;80.60;;;;;;4375877;32;43028;-75
2022/07/14 14:29:13;;;;;;;;;;;23.70;80.00;;;;;;4375737;32;42926;-74
2022/07/14 14:31:45;;;;;;;;;;;23.70;79.50;;;;;;4375363;32;42890;-75
2022/07/14 14:34:12;;;;;;;;;;;23.70;79.80;;;;;;4375842;32;43702;-74
2022/07/14 14:36:40;;;;;;;;;;;23.60;79.50;;;;;;4375658;32;43004;-74
2022/07/14 14:39:10;;;;;;;;;;;23.70;80.20;;;;;;4375148;32;45298;-74
2022/07/14 14:41:37;;;;;;;;;;;23.70;81.00;;;;;;4375381;32;43742;-73
2022/07/14 14:44:05;;;;;;;;;;;23.70;81.00;;;;;;4375462;32;43684;-76
2022/07/14 14:46:33;;;;;;;;;;;23.70;83.00;;;;;;4361765;32;43076;-73